createdAt,value
2023-02-08T00:00:43.859Z,79.30
2023-02-08T00:03:10.587Z,79.85
2023-02-08T00:05:37.988Z,80.58
2023-02-08T00:08:04.875Z,79.94
2023-02-08T00:10:31.694Z,80.51
2023-02-08T00:12:58.273Z,80.95
2023-02-08T00:15:24.888Z,80.81
2023-02-08T00:17:51.437Z,81.21
2023-02-08T00:20:18.428Z,81.75
2023-02-08T00:22:45.288Z,81.50
2023-02-08T00:25:11.971Z,82.12
2023-02-08T00:27:38.969Z,82.31
2023-02-08T00:30:06.271Z,82.21
2023-02-08T00:32:32.969Z,82.55
2023-02-08T00:34:59.571Z,82.48
2023-02-08T00:37:26.273Z,82.48
2023-02-08T00:39:52.889Z,82.50
2023-02-08T00:42:19.542Z,82.67
2023-02-08T00:44:46.109Z,82.99
2023-02-08T00:47:12.646Z,82.90
2023-02-08T00:49:39.297Z,82.64
2023-02-08T00:52:06.058Z,82.06
2023-02-08T00:54:32.575Z,82.20
2023-02-08T00:56:59.146Z,81.75
2023-02-08T00:59:25.899Z,81.54
2023-02-08T01:01:52.483Z,80.91
2023-02-08T01:04:19.026Z,81.01
2023-02-08T01:06:45.576Z,80.62
2023-02-08T01:09:12.321Z,80.88
2023-02-08T01:11:38.846Z,80.92
2023-02-08T01:14:05.390Z,80.75
2023-02-08T01:16:33.535Z,80.38
2023-02-08T01:19:01.816Z,80.11
2023-02-08T01:21:31.746Z,80.48
2023-02-08T01:23:58.813Z,80.70
2023-02-08T01:26:26.204Z,80.48
2023-02-08T01:28:54.480Z,80.11
2023-02-08T01:31:24.651Z,79.76
2023-02-08T01:33:51.748Z,79.82
2023-02-08T01:36:18.412Z,80.12
2023-02-08T01:38:45.826Z,80.16
2023-02-08T01:41:23.996Z,80.54
2023-02-08T01:44:07.664Z,80.92
2023-02-08T01:46:36.778Z,80.77
2023-02-08T01:49:10.712Z,80.44
2023-02-08T01:51:41.414Z,80.81
2023-02-08T01:54:11.932Z,80.24
2023-02-08T01:56:43.222Z,80.62
2023-02-08T01:59:17.259Z,80.60
2023-02-08T02:01:46.787Z,81.26
2023-02-08T02:04:14.314Z,81.22
2023-02-08T02:06:45.377Z,81.12
2023-02-08T02:09:26.902Z,81.13
2023-02-08T02:11:54.558Z,80.94
2023-02-08T02:14:22.524Z,80.65
2023-02-08T02:16:49.297Z,80.63
2023-02-08T02:19:33.271Z,80.92
2023-02-08T02:22:34.051Z,80.75
2023-02-08T02:25:42.500Z,79.87
2023-02-08T02:28:39.873Z,80.22
2023-02-08T02:31:32.637Z,80.53
2023-02-08T02:34:23.638Z,80.30
2023-02-08T02:36:57.239Z,80.22
2023-02-08T02:39:46.710Z,80.30
2023-02-08T02:42:48.319Z,80.40
2023-02-08T02:45:32.990Z,80.63
2023-02-08T02:48:11.956Z,80.27
2023-02-08T02:51:00.040Z,80.48
2023-02-08T02:53:53.058Z,81.24
2023-02-08T02:56:29.263Z,80.69
2023-02-08T02:58:59.189Z,80.27
2023-02-08T03:01:26.219Z,80.89
2023-02-08T03:03:54.275Z,80.98
2023-02-08T03:06:42.290Z,80.38
2023-02-08T03:09:30.741Z,80.49
2023-02-08T03:12:12.441Z,80.64
2023-02-08T03:15:00.011Z,80.74
2023-02-08T03:17:44.629Z,80.83
2023-02-08T03:20:18.270Z,80.88
2023-02-08T03:23:12.232Z,81.40
2023-02-08T03:25:50.080Z,81.30
2023-02-08T03:29:04.309Z,81.90
2023-02-08T03:31:34.952Z,81.54
2023-02-08T03:34:20.017Z,81.89
2023-02-08T03:36:57.725Z,81.64
2023-02-08T03:39:28.918Z,81.47
2023-02-08T03:42:00.331Z,82.08
2023-02-08T03:44:36.529Z,81.87
2023-02-08T03:47:26.569Z,82.20
2023-02-08T03:49:57.048Z,82.50
2023-02-08T03:52:24.933Z,82.26
2023-02-08T03:54:56.488Z,82.64
2023-02-08T03:57:55.476Z,82.62
2023-02-08T04:00:23.082Z,82.71
2023-02-08T04:03:02.033Z,83.04
2023-02-08T04:05:29.449Z,83.08
2023-02-08T04:07:56.017Z,82.73
2023-02-08T04:10:22.698Z,82.41
2023-02-08T04:12:49.507Z,82.99
2023-02-08T04:15:16.893Z,82.75
2023-02-08T04:17:43.751Z,82.88
2023-02-08T04:20:10.709Z,82.78
2023-02-08T04:22:37.254Z,82.94
2023-02-08T04:25:04.333Z,82.66
2023-02-08T04:27:31.062Z,83.04
2023-02-08T04:29:57.601Z,82.78
2023-02-08T04:32:24.187Z,83.00
2023-02-08T04:34:50.730Z,83.29
2023-02-08T04:37:17.416Z,82.72
2023-02-08T04:39:44.144Z,83.25
2023-02-08T04:42:10.722Z,83.73
2023-02-08T04:44:37.335Z,83.80
2023-02-08T04:47:03.956Z,84.01
2023-02-08T04:49:30.548Z,84.16
2023-02-08T04:51:57.140Z,83.79
2023-02-08T04:54:23.786Z,83.71
2023-02-08T04:56:50.357Z,83.56
2023-02-08T04:59:17.086Z,83.92
2023-02-08T05:01:43.790Z,83.97
2023-02-08T05:04:10.504Z,83.80
2023-02-08T05:06:37.129Z,83.49
2023-02-08T05:09:06.538Z,83.36
2023-02-08T05:11:33.149Z,83.37
2023-02-08T05:13:59.709Z,83.13
2023-02-08T05:16:26.529Z,83.37
2023-02-08T05:18:55.141Z,83.28
2023-02-08T05:21:23.916Z,83.38
2023-02-08T05:23:51.790Z,82.78
2023-02-08T05:26:19.041Z,82.87
2023-02-08T05:28:45.685Z,83.26
2023-02-08T05:31:23.793Z,83.27
2023-02-08T05:33:52.119Z,82.95
2023-02-08T05:36:20.453Z,83.92
2023-02-08T05:38:47.034Z,83.77
2023-02-08T05:41:13.577Z,84.08
2023-02-08T05:43:40.237Z,84.65
2023-02-08T05:46:06.811Z,84.49
2023-02-08T05:48:33.869Z,84.90
2023-02-08T05:51:00.820Z,84.87
2023-02-08T05:53:27.532Z,84.79
2023-02-08T05:55:54.342Z,85.00
2023-02-08T05:58:20.908Z,85.30
2023-02-08T06:00:47.680Z,85.10
2023-02-08T06:03:14.348Z,85.45
2023-02-08T06:05:41.564Z,85.70
2023-02-08T06:08:08.514Z,85.61
2023-02-08T06:10:35.605Z,85.29
2023-02-08T06:13:02.748Z,85.44
2023-02-08T06:15:29.314Z,85.85
2023-02-08T06:17:55.981Z,85.81
2023-02-08T06:20:22.608Z,85.88
2023-02-08T06:22:49.335Z,86.32
2023-02-08T06:25:15.892Z,86.25
2023-02-08T06:27:42.653Z,85.81
2023-02-08T06:30:10.167Z,86.02
2023-02-08T06:32:36.764Z,85.69
2023-02-08T06:35:04.784Z,85.67
2023-02-08T06:37:31.380Z,85.30
2023-02-08T06:39:57.966Z,85.64
2023-02-08T06:42:26.455Z,85.52
2023-02-08T06:44:55.656Z,85.43
2023-02-08T06:47:23.528Z,85.11
2023-02-08T06:49:50.594Z,84.99
2023-02-08T06:52:17.307Z,85.21
2023-02-08T06:54:44.010Z,85.12
2023-02-08T06:57:12.919Z,85.30
2023-02-08T06:59:40.601Z,85.34
2023-02-08T07:02:12.775Z,85.22
2023-02-08T07:04:39.426Z,85.67
2023-02-08T07:07:06.033Z,85.14
2023-02-08T07:09:36.773Z,85.00
2023-02-08T07:12:05.277Z,84.90
2023-02-08T07:14:33.955Z,84.87
2023-02-08T07:17:01.573Z,85.27
2023-02-08T07:19:28.882Z,85.02
2023-02-08T07:21:56.172Z,84.68
2023-02-08T07:24:24.686Z,84.43
2023-02-08T07:26:51.243Z,84.71
2023-02-08T07:29:17.816Z,84.16
2023-02-08T07:31:44.469Z,84.07
2023-02-08T07:34:11.052Z,84.79
2023-02-08T07:36:37.684Z,84.23
2023-02-08T07:39:04.505Z,84.72
2023-02-08T07:41:31.094Z,85.08
2023-02-08T07:43:59.826Z,85.09
2023-02-08T07:46:26.555Z,84.56
2023-02-08T07:48:53.563Z,84.49
2023-02-08T07:51:20.233Z,84.32
2023-02-08T07:53:47.159Z,84.38
2023-02-08T07:56:13.804Z,84.47
2023-02-08T07:58:40.453Z,84.12
2023-02-08T08:01:20.882Z,83.51
2023-02-08T08:03:48.959Z,84.00
2023-02-08T08:06:15.613Z,83.85
2023-02-08T08:08:43.283Z,83.84
2023-02-08T08:11:09.883Z,83.20
2023-02-08T08:13:36.541Z,83.16
2023-02-08T08:16:03.215Z,82.98
2023-02-08T08:18:29.977Z,82.82
2023-02-08T08:20:56.618Z,83.06
2023-02-08T08:23:23.837Z,82.12
2023-02-08T08:25:50.584Z,81.91
2023-02-08T08:28:17.233Z,81.23
2023-02-08T08:30:44.832Z,81.48
2023-02-08T08:33:14.054Z,81.53
2023-02-08T08:35:42.603Z,80.81
2023-02-08T08:38:09.836Z,80.24
2023-02-08T08:40:37.495Z,80.00
2023-02-08T08:43:04.116Z,79.67
2023-02-08T08:45:30.708Z,79.11
2023-02-08T08:47:57.347Z,78.76
2023-02-08T08:50:23.913Z,78.92
2023-02-08T08:52:50.562Z,78.52
2023-02-08T08:55:17.446Z,77.16
2023-02-08T08:57:44.127Z,77.72
2023-02-08T09:00:11.726Z,76.90
2023-02-08T09:02:38.302Z,76.13
2023-02-08T09:05:07.957Z,75.92
2023-02-08T09:07:35.142Z,75.84
2023-02-08T09:10:01.683Z,75.34
2023-02-08T09:12:28.823Z,75.30
2023-02-08T09:14:55.413Z,75.32
2023-02-08T09:17:21.985Z,73.88
2023-02-08T09:19:48.949Z,73.48
2023-02-08T09:22:16.176Z,73.46
2023-02-08T09:24:42.803Z,73.10
2023-02-08T09:27:09.433Z,73.00
2023-02-08T09:29:36.116Z,72.85
2023-02-08T09:32:02.727Z,72.20
2023-02-08T09:34:30.544Z,69.99
2023-02-08T09:36:57.163Z,70.22
2023-02-08T09:39:25.404Z,69.91
2023-02-08T09:42:17.207Z,68.98
2023-02-08T09:44:56.024Z,68.64
2023-02-08T09:47:35.931Z,67.38
2023-02-08T09:50:19.807Z,67.96
2023-02-08T09:52:58.419Z,65.24
2023-02-08T09:55:46.483Z,64.66
2023-02-08T09:58:22.317Z,62.74
2023-02-08T10:00:50.846Z,64.45
2023-02-08T10:03:45.072Z,63.57
2023-02-08T10:06:15.031Z,62.80
2023-02-08T10:08:42.312Z,62.69
2023-02-08T10:11:17.996Z,61.36
2023-02-08T10:13:56.586Z,60.91
2023-02-08T10:16:23.181Z,61.31
2023-02-08T10:18:58.049Z,61.35
2023-02-08T10:21:36.840Z,61.94
2023-02-08T10:24:21.611Z,61.78
2023-02-08T10:26:57.605Z,60.39
2023-02-08T10:30:14.520Z,57.14
2023-02-08T10:32:59.671Z,56.89
2023-02-08T10:35:37.549Z,56.92
2023-02-08T10:38:21.122Z,56.07
2023-02-08T10:41:00.984Z,56.80
2023-02-08T10:43:41.482Z,57.08
2023-02-08T10:46:38.067Z,55.83
2023-02-08T10:49:40.991Z,55.92
2023-02-08T10:54:51.596Z,56.04
2023-02-08T10:57:28.553Z,55.44
2023-02-08T11:00:17.279Z,54.78
2023-02-08T11:02:48.070Z,55.47
2023-02-08T11:05:24.181Z,55.42
2023-02-08T11:08:09.794Z,54.55
2023-02-08T11:10:39.285Z,54.77
2023-02-08T11:13:17.524Z,54.52
2023-02-08T11:15:48.468Z,54.11
2023-02-08T11:18:40.182Z,53.67
2023-02-08T11:21:26.352Z,54.66
2023-02-08T11:24:06.355Z,53.67
2023-02-08T11:26:34.804Z,52.07
2023-02-08T11:29:19.429Z,53.04
2023-02-08T11:32:08.379Z,54.70
2023-02-08T11:34:42.283Z,53.93
2023-02-08T11:37:33.175Z,53.29
2023-02-08T11:40:04.869Z,51.66
2023-02-08T11:42:39.258Z,52.79
2023-02-08T11:45:06.777Z,52.97
2023-02-08T11:47:35.276Z,51.40
2023-02-08T11:50:07.090Z,51.06
2023-02-08T11:52:39.350Z,51.95
2023-02-08T11:55:24.299Z,51.94
2023-02-08T11:57:58.495Z,52.16
2023-02-08T12:00:27.843Z,50.29
2023-02-08T12:03:04.060Z,50.32
2023-02-08T12:06:02.592Z,50.54
2023-02-08T12:09:09.654Z,50.83
2023-02-08T12:11:44.143Z,50.13
2023-02-08T12:14:24.658Z,49.71
2023-02-08T12:17:13.806Z,49.69
2023-02-08T12:19:46.250Z,49.61
2023-02-08T12:22:29.330Z,51.58
2023-02-08T12:25:17.195Z,50.15
2023-02-08T12:28:01.971Z,49.96
2023-02-08T12:30:44.173Z,49.83
2023-02-08T12:33:33.622Z,50.13
2023-02-08T12:36:06.157Z,50.21
2023-02-08T12:39:19.017Z,50.90
2023-02-08T12:41:58.886Z,49.47
2023-02-08T12:44:34.606Z,46.44
2023-02-08T12:47:23.238Z,46.95
2023-02-08T12:50:09.394Z,46.83
2023-02-08T12:52:43.568Z,47.06
2023-02-08T12:55:24.534Z,46.81
2023-02-08T12:57:54.366Z,47.55
2023-02-08T13:00:32.379Z,48.53
2023-02-08T13:03:37.383Z,49.72
2023-02-08T13:06:12.405Z,47.26
2023-02-08T13:08:55.712Z,47.70
2023-02-08T13:11:41.680Z,46.99
2023-02-08T13:14:20.271Z,45.99
2023-02-08T13:16:52.130Z,45.73
2023-02-08T13:19:23.648Z,46.81
2023-02-08T13:21:53.244Z,47.79
2023-02-08T13:24:36.579Z,48.44
2023-02-08T13:27:05.597Z,47.48
2023-02-08T13:29:33.731Z,46.14
2023-02-08T13:32:06.727Z,45.37
2023-02-08T13:34:42.529Z,46.26
2023-02-08T13:37:30.197Z,46.14
2023-02-08T13:40:08.416Z,47.35
2023-02-08T13:42:39.969Z,46.90
2023-02-08T13:45:09.460Z,47.15
2023-02-08T13:47:56.183Z,46.65
2023-02-08T13:50:34.824Z,47.06
2023-02-08T13:53:02.719Z,46.97
2023-02-08T13:55:30.597Z,47.13
2023-02-08T13:58:13.505Z,46.78
2023-02-08T14:00:56.441Z,47.42
2023-02-08T14:03:28.626Z,47.87
2023-02-08T14:06:15.231Z,48.50
2023-02-08T14:08:50.884Z,47.34
2023-02-08T14:11:32.035Z,46.57
2023-02-08T14:14:20.348Z,47.05
2023-02-08T14:17:09.942Z,48.54
2023-02-08T14:19:42.789Z,48.69
2023-02-08T14:22:12.302Z,49.15
2023-02-08T14:24:49.915Z,49.95
2023-02-08T14:27:30.247Z,49.27
2023-02-08T14:30:02.123Z,49.53
2023-02-08T14:32:32.242Z,49.39
2023-02-08T14:35:06.609Z,50.00
2023-02-08T14:37:37.486Z,49.97
2023-02-08T14:40:25.283Z,50.99
2023-02-08T14:42:58.129Z,51.34
2023-02-08T14:45:29.511Z,51.78
2023-02-08T14:48:03.004Z,52.06
2023-02-08T14:50:36.877Z,52.86
2023-02-08T14:53:14.883Z,52.39
2023-02-08T14:55:49.880Z,52.60
2023-02-08T14:58:26.593Z,53.08
2023-02-08T15:00:56.344Z,53.19
2023-02-08T15:03:25.457Z,53.46
2023-02-08T15:06:23.082Z,53.68
2023-02-08T15:08:52.638Z,53.64
2023-02-08T15:11:26.319Z,53.54
2023-02-08T15:13:55.679Z,54.00
2023-02-08T15:16:29.884Z,53.76
2023-02-08T15:18:56.544Z,53.35
2023-02-08T15:21:30.199Z,52.82
2023-02-08T15:24:14.922Z,53.64
2023-02-08T15:26:56.011Z,54.12
2023-02-08T15:29:42.827Z,54.08
2023-02-08T15:32:17.734Z,54.33
2023-02-08T15:34:48.178Z,54.70
2023-02-08T15:37:18.975Z,55.37
2023-02-08T15:39:51.160Z,54.93
2023-02-08T15:42:44.518Z,55.69
2023-02-08T15:45:26.607Z,56.23
2023-02-08T15:47:54.130Z,56.04
2023-02-08T15:50:22.983Z,56.10
2023-02-08T15:52:57.380Z,56.81
2023-02-08T15:55:25.992Z,56.93
2023-02-08T15:58:07.372Z,56.86
2023-02-08T16:00:37.190Z,57.10
2023-02-08T16:03:16.341Z,56.70
2023-02-08T16:05:49.501Z,57.59
2023-02-08T16:08:30.982Z,57.53
2023-02-08T16:11:01.422Z,57.64
2023-02-08T16:13:32.029Z,57.46
2023-02-08T16:16:16.933Z,58.00
2023-02-08T16:18:46.327Z,57.86
2023-02-08T16:21:25.033Z,58.40
2023-02-08T16:23:56.604Z,59.15
2023-02-08T16:26:56.878Z,59.15
2023-02-08T16:29:33.378Z,59.93
2023-02-08T16:32:23.283Z,60.75
2023-02-08T16:34:49.846Z,61.84
2023-02-08T16:37:30.027Z,62.55
2023-02-08T16:40:36.475Z,62.65
2023-02-08T16:43:16.770Z,62.81
2023-02-08T16:45:43.588Z,63.14
2023-02-08T16:48:35.089Z,63.77
2023-02-08T16:51:03.727Z,63.61
2023-02-08T16:53:41.328Z,63.80
2023-02-08T16:56:10.326Z,63.98
2023-02-08T16:58:37.264Z,64.29
2023-02-08T17:01:04.547Z,64.81
2023-02-08T17:03:32.662Z,65.04
2023-02-08T17:06:01.034Z,65.16
2023-02-08T17:08:27.998Z,65.02
2023-02-08T17:10:58.970Z,65.00
2023-02-08T17:13:29.045Z,65.00
2023-02-08T17:15:58.479Z,65.24
2023-02-08T17:18:25.057Z,65.41
2023-02-08T17:20:57.764Z,67.06
2023-02-08T17:23:24.484Z,66.75
2023-02-08T17:25:52.045Z,66.55
2023-02-08T17:28:20.077Z,66.87
2023-02-08T17:30:54.147Z,67.20
2023-02-08T17:33:20.805Z,67.44
2023-02-08T17:35:51.021Z,67.28
2023-02-08T17:38:18.602Z,66.96
2023-02-08T17:40:45.881Z,68.09
2023-02-08T17:43:13.538Z,67.63
2023-02-08T17:45:42.046Z,67.84
2023-02-08T17:48:09.219Z,68.39
2023-02-08T17:50:40.092Z,68.82
2023-02-08T17:53:06.754Z,69.93
2023-02-08T17:55:33.382Z,71.11
2023-02-08T17:57:59.946Z,70.66
2023-02-08T18:00:26.581Z,69.70
2023-02-08T18:02:55.356Z,70.39
2023-02-08T18:05:27.801Z,71.59
2023-02-08T18:07:56.154Z,72.21
2023-02-08T18:10:25.188Z,72.60
2023-02-08T18:12:51.882Z,72.42
2023-02-08T18:15:21.419Z,71.99
2023-02-08T18:17:48.797Z,72.34
2023-02-08T18:20:17.360Z,73.27
2023-02-08T18:22:44.374Z,74.40
2023-02-08T18:25:12.404Z,74.21
2023-02-08T18:27:39.786Z,74.22
2023-02-08T18:30:07.334Z,73.72
2023-02-08T18:32:34.242Z,75.07
2023-02-08T18:37:59.636Z,74.86
2023-02-08T18:40:26.250Z,75.44
2023-02-08T18:42:52.915Z,76.15
2023-02-08T18:45:19.650Z,76.43
2023-02-08T18:47:46.240Z,77.06
2023-02-08T18:50:13.041Z,76.66
2023-02-08T19:24:30.296Z,79.71
2023-02-08T19:27:45.945Z,79.67
2023-02-08T19:30:16.555Z,79.54
2023-02-08T19:32:43.613Z,79.60
2023-02-08T19:38:07.536Z,79.47
2023-02-08T19:41:14.772Z,79.92
2023-02-08T19:46:34.649Z,81.02
2023-02-08T19:51:59.507Z,83.33
2023-02-08T19:54:33.940Z,82.08
2023-02-08T19:57:03.746Z,81.54
2023-02-08T20:10:10.587Z,81.17
2023-02-08T20:12:37.176Z,80.06
2023-02-08T20:15:03.967Z,78.46
2023-02-08T20:17:30.557Z,77.94
2023-02-08T20:19:57.075Z,76.35
2023-02-08T20:22:24.663Z,75.52
2023-02-08T20:24:52.337Z,76.66
2023-02-08T20:27:18.940Z,76.51
2023-02-08T20:29:46.010Z,75.91
2023-02-08T20:32:13.059Z,77.14
2023-02-08T20:34:47.352Z,78.15
2023-02-08T20:37:23.004Z,79.33
2023-02-08T20:39:49.595Z,80.37
2023-02-08T20:42:16.113Z,81.12
2023-02-08T20:44:42.877Z,81.72
2023-02-08T20:47:10.674Z,82.11
2023-02-08T20:49:40.432Z,82.40
2023-02-08T20:52:07.063Z,82.66
2023-02-08T20:54:33.648Z,83.52
2023-02-08T20:57:00.441Z,83.39
2023-02-08T20:59:28.254Z,82.61
2023-02-08T21:01:55.138Z,83.05
2023-02-08T21:04:23.718Z,83.47
2023-02-08T21:06:51.249Z,83.45
2023-02-08T21:09:19.474Z,83.24
2023-02-08T21:11:47.309Z,83.51
2023-02-08T21:14:18.936Z,83.17
2023-02-08T21:16:58.710Z,82.93
2023-02-08T21:19:27.198Z,83.01
2023-02-08T21:21:55.987Z,82.91
2023-02-08T21:24:24.108Z,82.63
2023-02-08T21:26:54.818Z,83.48
2023-02-08T21:29:22.082Z,84.17
2023-02-08T21:31:51.891Z,84.17
2023-02-08T21:34:19.621Z,84.68
2023-02-08T21:36:46.578Z,84.53
2023-02-08T21:39:13.260Z,84.08
2023-02-08T21:41:40.065Z,83.92
2023-02-08T21:44:08.351Z,84.58
2023-02-08T21:46:35.198Z,84.62
2023-02-08T21:49:20.281Z,82.97
2023-02-08T21:52:05.965Z,82.88
2023-02-08T21:54:44.380Z,83.55
2023-02-08T21:57:16.186Z,81.17
2023-02-08T21:59:43.370Z,81.15
2023-02-08T22:02:16.266Z,81.67
2023-02-08T22:05:01.814Z,80.87
2023-02-08T22:07:29.648Z,80.30
2023-02-08T22:09:56.498Z,80.50
2023-02-08T22:12:23.551Z,80.54
2023-02-08T22:14:50.694Z,82.89
2023-02-08T22:17:17.846Z,84.11
2023-02-08T22:19:44.681Z,85.18
2023-02-08T22:22:12.325Z,84.39
2023-02-08T22:24:39.160Z,84.20
2023-02-08T22:27:05.996Z,83.35
2023-02-08T22:29:32.694Z,81.19
2023-02-08T22:31:59.516Z,79.36
2023-02-08T22:34:27.541Z,79.23
2023-02-08T22:36:54.437Z,79.38
2023-02-08T22:39:21.529Z,79.19
2023-02-08T22:41:48.370Z,79.44
2023-02-08T22:44:15.042Z,79.93
2023-02-08T22:46:41.976Z,81.93
2023-02-08T22:49:09.029Z,82.35
2023-02-08T22:51:36.197Z,83.39
2023-02-08T22:54:02.900Z,82.25
2023-02-08T22:56:29.686Z,81.75
2023-02-08T22:58:56.500Z,81.56
2023-02-08T23:01:23.307Z,81.44
2023-02-08T23:03:50.136Z,80.51
2023-02-08T23:06:17.154Z,80.27
2023-02-08T23:08:44.245Z,80.10
2023-02-08T23:11:13.215Z,79.90
2023-02-08T23:13:39.801Z,80.06
2023-02-08T23:16:06.647Z,80.16
2023-02-08T23:18:36.716Z,80.04
2023-02-08T23:21:08.129Z,80.16
2023-02-08T23:23:34.948Z,80.35
2023-02-08T23:26:05.086Z,80.15
2023-02-08T23:28:32.486Z,79.95
2023-02-08T23:31:00.194Z,79.58
2023-02-08T23:33:27.062Z,79.57
2023-02-08T23:35:53.657Z,79.66
2023-02-08T23:38:20.243Z,79.69
2023-02-08T23:40:47.230Z,80.01
2023-02-08T23:43:14.029Z,80.38
2023-02-08T23:45:40.578Z,79.95
2023-02-08T23:48:07.550Z,80.25
2023-02-08T23:50:34.893Z,80.10
2023-02-08T23:53:01.485Z,80.09
2023-02-08T23:55:28.156Z,79.86
2023-02-08T23:57:54.674Z,79.81
